Terminal Aerodrome Forecast
Issued by NWS

Home | Current Version | Previous Version | Text Only | Print | Product List | Glossary Off
Versions: 1 2 3 4 5 6 7 8 9 10 11 12 13 14

744
FTUS42 KMHX 242340
TAFPGV
TAF
KPGV 242340Z 2500/2524 08012G20KT 3SM SHRA SCT007 OVC015
      TEMPO 2503/2507 2SM +RA BKN007
     FM250700 06009KT 3SM SHRA BKN007
     FM251500 20007KT 6SM -SHRA BKN015
     FM251900 VRB05KT P6SM VCSH BKN025
      AMD LTD TO CLD VIS AND WIND=

USA.gov is the U.S. government's official web portal to all federal, state and local government web resources and services.